Time;durP1;ratioP1;P1;durP2;ratioP2;P2;SDS_P1;SDS_P2;PMS_P1;PMS_P2;Temp;Humidity;BMP_temperature;BMP_pressure;BME280_temperature;BME280_humidity;BME280_pressure;Samples;Min_cycle;Max_cycle;Signal;HPM_P1;HPM_P2
2022/01/01 00:02:00;;;;;;;13.50;5.35;;;;;;;12.20;91.90;100126.84;5024202;28;20087;-84
2022/01/01 00:04:27;;;;;;;36.70;16.85;;;;;;;12.17;91.88;100113.75;5007459;28;20045;-83
2022/01/01 00:06:54;;;;;;;35.60;16.83;;;;;;;12.16;91.82;100103.81;5023378;28;20077;-83
2022/01/01 00:09:21;;;;;;;22.55;11.07;;;;;;;12.17;91.29;100108.19;5022334;28;20065;-83
2022/01/01 00:11:48;;;;;;;16.90;7.30;;;;;;;12.15;91.09;100102.19;5020725;28;20116;-83
2022/01/01 00:14:15;;;;;;;25.92;6.90;;;;;;;12.19;90.75;100091.16;5025241;28;20437;-82
2022/01/01 00:16:47;;;;;;;18.13;6.38;;;;;;;12.20;90.48;100088.00;5011268;28;20124;-83
2022/01/01 00:19:14;;;;;;;20.70;8.10;;;;;;;12.21;90.43;100089.63;5009191;28;20091;-84
2022/01/01 00:21:44;;;;;;;23.48;8.40;;;;;;;12.22;90.18;100076.56;5007570;28;20072;-81
2022/01/01 00:24:11;;;;;;;20.15;6.65;;;;;;;12.22;90.00;100093.19;5022200;28;20433;-81
2022/01/01 00:26:38;;;;;;;24.30;7.13;;;;;;;12.23;90.00;100089.25;5022249;28;20034;-82
2022/01/01 00:29:06;;;;;;;25.38;6.88;;;;;;;12.23;89.87;100086.50;5026519;28;20033;-81
2022/01/01 00:31:33;;;;;;;34.10;10.05;;;;;;;12.23;89.70;100097.59;5007333;28;20592;-81
2022/01/01 00:34:00;;;;;;;25.30;7.90;;;;;;;12.23;89.66;100114.25;5024481;28;21236;-81
2022/01/01 00:36:27;;;;;;;31.85;8.77;;;;;;;12.23;89.54;100094.81;5027607;28;20034;-81
2022/01/01 00:38:54;;;;;;;27.85;9.20;;;;;;;12.24;89.47;100093.63;5009685;28;20099;-81
2022/01/01 00:41:21;;;;;;;43.00;10.80;;;;;;;12.23;89.61;100091.22;5011106;28;20037;-82
2022/01/01 00:43:48;;;;;;;33.50;8.23;;;;;;;12.22;89.16;100082.09;5026176;28;20053;-83
2022/01/01 00:46:15;;;;;;;25.60;9.38;;;;;;;12.20;89.26;100071.34;5026064;28;20442;-82
2022/01/01 00:48:42;;;;;;;36.33;9.60;;;;;;;12.17;89.15;100061.03;5011068;28;20049;-81
2022/01/01 00:51:25;;;;;;;32.10;9.73;;;;;;;12.15;89.34;100059.78;5010629;28;20033;-81
2022/01/01 00:53:53;;;;;;;36.45;11.52;;;;;;;12.13;89.58;100048.25;5026645;28;20033;-81
2022/01/01 00:56:20;;;;;;;30.58;8.73;;;;;;;12.11;89.43;100061.69;5025401;28;20053;-82
2022/01/01 00:58:47;;;;;;;35.10;9.18;;;;;;;12.09;89.29;100050.19;5025781;28;20088;-81
2022/01/01 01:01:14;;;;;;;35.85;10.95;;;;;;;12.09;89.08;100041.84;5008532;28;20045;-82
2022/01/01 01:03:43;;;;;;;29.30;8.80;;;;;;;12.07;89.01;100039.44;5024823;28;20044;-82
2022/01/01 01:06:12;;;;;;;33.47;9.05;;;;;;;12.06;88.95;100035.06;5026022;28;20112;-81
2022/01/01 01:08:39;;;;;;;36.72;9.80;;;;;;;12.06;88.92;100037.03;5009490;28;20081;-82
2022/01/01 01:11:08;;;;;;;36.13;10.90;;;;;;;12.05;88.95;100052.88;5025306;28;20056;-81
2022/01/01 01:13:36;;;;;;;24.85;7.32;;;;;;;12.06;88.55;100045.38;5025211;28;20120;-82
2022/01/01 01:16:03;;;;;;;23.42;7.88;;;;;;;12.04;88.25;100047.72;5025609;28;20072;-81
2022/01/01 01:18:30;;;;;;;37.22;9.38;;;;;;;12.05;88.06;100054.84;5026614;28;20037;-81
2022/01/01 01:20:57;;;;;;;39.97;9.65;;;;;;;12.03;88.01;100048.88;5026581;28;20033;-82
2022/01/01 01:23:23;;;;;;;33.33;9.02;;;;;;;12.00;88.02;100050.44;5026412;28;20099;-81
2022/01/01 01:25:50;;;;;;;32.53;9.02;;;;;;;12.00;88.16;100049.63;5028036;28;20033;-81
2022/01/01 01:28:17;;;;;;;36.47;7.63;;;;;;;11.97;87.89;100055.91;5009127;28;20148;-81
2022/01/01 01:30:46;;;;;;;37.47;7.70;;;;;;;11.95;88.21;100052.72;5010922;28;20116;-82
2022/01/01 01:33:12;;;;;;;37.88;8.75;;;;;;;11.93;88.14;100060.59;5027030;28;20045;-82
2022/01/01 01:35:39;;;;;;;40.47;9.57;;;;;;;11.87;88.37;100034.34;5010186;28;20127;-81
2022/01/01 01:38:06;;;;;;;31.40;9.00;;;;;;;11.80;88.71;100014.81;5028122;28;20456;-82
2022/01/01 01:40:33;;;;;;;34.25;11.82;;;;;;;11.76;88.88;100011.19;5007708;28;20088;-82
2022/01/01 01:43:01;;;;;;;37.85;9.10;;;;;;;11.73;89.18;99998.06;5023558;28;20052;-82
2022/01/01 01:45:28;;;;;;;47.50;11.55;;;;;;;11.70;89.28;99979.41;5008200;28;20057;-81
2022/01/01 01:47:55;;;;;;;29.70;9.25;;;;;;;11.68;89.18;99971.41;5024506;28;20500;-81
2022/01/01 01:50:23;;;;;;;40.20;9.63;;;;;;;11.67;89.28;99957.94;5025523;28;20046;-83
2022/01/01 01:52:54;;;;;;;37.03;9.55;;;;;;;11.66;89.09;99968.22;5020809;28;20494;-82
2022/01/01 01:55:22;;;;;;;31.17;9.25;;;;;;;11.64;88.99;99965.03;5023101;28;20108;-82
2022/01/01 01:57:49;;;;;;;37.35;9.05;;;;;;;11.63;88.92;99953.13;5024183;28;20045;-82
2022/01/01 02:00:54;;;;;;;36.58;8.13;;;;;;;11.62;88.77;99948.75;5006465;28;20037;-82
2022/01/01 02:03:17;;;;;;;30.20;8.77;;;;;;;11.62;88.79;99945.97;5021273;28;20103;-81
2022/01/01 02:05:47;;;;;;;40.38;9.82;;;;;;;11.61;88.90;99949.94;5008991;28;20069;-82
2022/01/01 02:08:16;;;;;;;28.40;8.45;;;;;;;11.60;88.67;99964.16;5024433;28;20033;-82
2022/01/01 02:10:43;;;;;;;34.97;10.90;;;;;;;11.62;88.73;99947.97;5021933;28;20060;-82
2022/01/01 02:13:21;;;;;;;32.08;8.25;;;;;;;11.63;88.24;99946.78;5026736;28;20096;-82
2022/01/01 02:18:15;;;;;;;32.88;7.63;;;;;;;11.69;87.65;99933.44;5024187;28;20046;-81
2022/01/01 02:20:49;;;;;;;25.45;7.35;;;;;;;11.69;87.63;99930.66;5023441;28;20049;-81
2022/01/01 02:23:22;;;;;;;24.80;6.70;;;;;;;11.69;87.28;99916.78;5023922;28;20140;-82
2022/01/01 02:25:50;;;;;;;37.78;7.20;;;;;;;11.69;87.27;99912.06;5034107;28;20134;-82
2022/01/01 02:28:17;;;;;;;36.85;8.18;;;;;;;11.69;87.03;99894.59;5022167;28;20045;-82
2022/01/01 02:30:47;;;;;;;37.88;7.22;;;;;;;11.65;87.39;99871.56;5007536;28;20500;-82
2022/01/01 02:33:14;;;;;;;25.80;7.68;;;;;;;11.63;87.13;99869.94;5022856;28;20061;-82
2022/01/01 02:35:42;;;;;;;35.67;8.90;;;;;;;11.63;87.29;99880.22;5010700;28;20059;-82
2022/01/01 02:38:08;;;;;;;26.02;6.80;;;;;;;11.61;87.33;99894.47;5013086;28;20047;-82
2022/01/01 02:40:36;;;;;;;24.20;7.18;;;;;;;11.58;87.12;99889.69;5029217;28;20045;-81
2022/01/01 02:43:03;;;;;;;38.83;8.88;;;;;;;11.57;87.22;99881.72;5027937;28;20038;-81
2022/01/01 02:45:30;;;;;;;25.20;6.70;;;;;;;11.55;86.86;99865.47;5024499;28;20084;-81
2022/01/01 02:47:58;;;;;;;28.30;7.45;;;;;;;11.55;87.11;99879.31;5027880;28;20037;-82
2022/01/01 02:50:24;;;;;;;27.55;6.32;;;;;;;11.56;86.99;99880.13;5028487;28;20033;-81
2022/01/01 02:52:52;;;;;;;31.92;6.60;;;;;;;11.56;87.06;99875.41;5028568;28;20044;-81
2022/01/01 02:55:19;;;;;;;23.48;7.05;;;;;;;11.58;87.07;99872.22;5027207;28;20132;-82
2022/01/01 02:57:45;;;;;;;29.20;6.18;;;;;;;11.58;86.81;99855.59;5026077;28;20044;-81
2022/01/01 03:00:13;;;;;;;29.65;7.43;;;;;;;11.59;87.00;99858.03;5027108;28;20578;-81
2022/01/01 03:02:40;;;;;;;29.02;7.18;;;;;;;11.60;86.73;99853.25;5011054;28;20111;-81
2022/01/01 03:05:07;;;;;;;32.47;7.40;;;;;;;11.60;86.95;99842.97;5024704;28;20045;-81
2022/01/01 03:07:36;;;;;;;27.85;6.55;;;;;;;11.62;86.77;99859.25;5028187;28;20128;-81
2022/01/01 03:10:04;;;;;;;27.95;5.53;;;;;;;11.66;86.72;99828.78;5028040;28;20120;-82
2022/01/01 03:12:30;;;;;;;30.80;7.82;;;;;;;11.77;86.24;99813.94;5027199;28;20103;-81
2022/01/01 03:14:57;;;;;;;28.10;5.60;;;;;;;11.88;85.76;99814.06;5008241;28;20088;-82
2022/01/01 03:17:24;;;;;;;31.20;7.68;;;;;;;11.99;85.17;99812.25;5027122;28;20466;-82
2022/01/01 03:19:51;;;;;;;25.67;7.20;;;;;;;12.08;84.65;99810.75;5010338;28;20477;-82
2022/01/01 03:22:17;;;;;;;20.50;5.47;;;;;;;12.17;84.43;99785.50;5040240;28;20045;-82
2022/01/01 03:24:44;;;;;;;37.40;8.75;;;;;;;12.24;84.43;99799.44;5027845;28;20488;-81
2022/01/01 03:27:11;;;;;;;20.15;5.68;;;;;;;12.25;84.06;99778.84;5025982;28;20037;-81
2022/01/01 03:29:38;;;;;;;27.23;5.53;;;;;;;12.30;84.05;99783.25;5028644;28;20088;-81
2022/01/01 03:32:05;;;;;;;27.92;5.93;;;;;;;12.37;83.83;99758.34;5026374;28;20053;-82
2022/01/01 03:34:32;;;;;;;45.15;8.15;;;;;;;12.42;83.55;99760.78;5027598;28;20041;-81
2022/01/01 03:36:59;;;;;;;32.15;7.53;;;;;;;12.43;83.29;99732.66;5028287;28;20381;-82
2022/01/01 03:39:27;;;;;;;34.47;9.13;;;;;;;12.45;83.58;99749.72;5025482;28;20037;-82
2022/01/01 03:41:54;;;;;;;28.55;7.50;;;;;;;12.43;83.67;99743.75;5023406;28;20680;-82
2022/01/01 03:44:21;;;;;;;29.13;5.47;;;;;;;12.42;83.36;99758.81;5025917;28;20069;-82
2022/01/01 03:46:49;;;;;;;36.78;6.88;;;;;;;12.44;83.36;99762.00;5024833;28;20099;-82
2022/01/01 03:49:16;;;;;;;27.20;6.25;;;;;;;12.49;83.33;99745.00;5026237;28;20042;-82
2022/01/01 03:51:43;;;;;;;37.40;8.23;;;;;;;12.48;83.53;99754.50;5028164;28;20056;-82
2022/01/01 03:54:11;;;;;;;27.60;5.68;;;;;;;12.52;83.52;99747.00;5026783;28;20131;-81
2022/01/01 03:56:38;;;;;;;46.90;6.70;;;;;;;12.53;83.48;99751.38;5027964;28;20120;-82
2022/01/01 03:59:05;;;;;;;30.65;7.15;;;;;;;12.57;83.54;99765.31;5027578;28;20123;-82
2022/01/01 04:01:32;;;;;;;40.00;8.82;;;;;;;12.62;84.01;99742.75;5025251;28;20732;-81
2022/01/01 04:03:59;;;;;;;37.85;7.60;;;;;;;12.65;83.82;99753.88;5010632;28;20615;-82
2022/01/01 04:06:26;;;;;;;27.13;6.00;;;;;;;12.71;83.74;99741.22;5027919;28;20124;-81
2022/01/01 04:08:53;;;;;;;32.47;6.82;;;;;;;12.78;83.47;99721.88;5026304;28;20037;-82
2022/01/01 04:11:21;;;;;;;35.15;6.30;;;;;;;12.81;83.41;99736.97;5027228;28;20041;-81
2022/01/01 04:13:49;;;;;;;28.48;7.22;;;;;;;12.87;83.49;99709.63;5026815;28;20053;-81
2022/01/01 04:16:17;;;;;;;36.30;7.65;;;;;;;12.94;83.26;99721.59;5026590;28;20045;-83
2022/01/01 04:18:45;;;;;;;26.35;6.50;;;;;;;13.01;83.07;99715.25;5023699;28;20049;-82
2022/01/01 04:21:14;;;;;;;26.25;7.07;;;;;;;13.01;82.85;99687.47;5028187;28;20037;-82
2022/01/01 04:23:45;;;;;;;28.90;5.97;;;;;;;13.10;82.33;99679.66;5006827;28;20088;-82
2022/01/01 04:26:12;;;;;;;36.42;6.38;;;;;;;13.17;82.36;99688.00;5025236;28;20045;-82
2022/01/01 04:28:41;;;;;;;45.30;9.57;;;;;;;13.20;82.00;99693.59;5022426;28;20056;-82
2022/01/01 04:31:08;;;;;;;40.50;9.65;;;;;;;13.23;81.90;99687.28;5027375;28;20095;-82
2022/01/01 04:33:35;;;;;;;32.30;8.95;;;;;;;13.29;81.86;99665.47;5029141;28;20088;-82
2022/01/01 04:36:02;;;;;;;27.17;6.70;;;;;;;13.30;82.05;99695.63;5009060;28;20053;-82
2022/01/01 04:40:59;;;;;;;32.47;8.18;;;;;;;13.33;82.00;99644.03;5024622;28;20509;-82
2022/01/01 04:43:25;;;;;;;36.05;6.43;;;;;;;13.37;81.98;99648.41;5026978;28;20083;-81
2022/01/01 04:45:52;;;;;;;37.50;7.32;;;;;;;13.38;82.34;99619.44;5030675;28;20511;-82
2022/01/01 04:48:19;;;;;;;28.42;7.80;;;;;;;13.36;82.55;99634.91;5025205;28;20041;-82
2022/01/01 04:50:46;;;;;;;31.67;6.72;;;;;;;13.35;82.92;99647.22;5025091;28;20048;-82
2022/01/01 04:53:17;;;;;;;42.20;9.70;;;;;;;13.35;83.23;99634.09;5023421;28;20068;-82
2022/01/01 04:55:45;;;;;;;28.10;6.43;;;;;;;13.40;83.02;99624.59;5025380;28;20045;-82
2022/01/01 04:58:12;;;;;;;30.20;6.32;;;;;;;13.38;83.32;99646.44;5024358;28;20096;-81
2022/01/01 05:00:39;;;;;;;37.88;7.45;;;;;;;13.38;83.81;99635.31;5022394;28;20480;-82
2022/01/01 05:03:06;;;;;;;20.70;6.45;;;;;;;13.34;83.67;99596.38;5026193;28;20474;-81
2022/01/01 05:05:33;;;;;;;25.50;6.03;;;;;;;13.34;84.22;99596.38;5009828;28;20392;-81
2022/01/01 05:08:10;;;;;;;22.15;4.60;;;;;;;13.27;84.45;99582.44;5023749;28;20496;-81
2022/01/01 05:10:37;;;;;;;20.45;5.80;;;;;;;13.28;84.41;99588.81;5025922;28;20112;-82
2022/01/01 05:13:04;;;;;;;21.55;3.90;;;;;;;13.27;84.58;99579.66;5006573;28;20085;-82
2022/01/01 05:15:31;;;;;;;28.80;6.10;;;;;;;13.28;84.49;99591.59;5022627;28;20094;-82
2022/01/01 05:17:58;;;;;;;17.17;5.13;;;;;;;13.33;84.22;99594.00;5008928;28;20713;-82
2022/01/01 05:20:25;;;;;;;20.63;4.63;;;;;;;13.33;84.25;99600.34;5024653;28;20048;-81
2022/01/01 05:22:52;;;;;;;23.70;5.35;;;;;;;13.36;84.23;99593.22;5026238;28;20097;-81
2022/01/01 05:25:19;;;;;;;21.55;6.07;;;;;;;13.39;83.83;99572.97;5024584;28;20041;-82
2022/01/01 05:27:46;;;;;;;31.35;6.60;;;;;;;13.42;83.57;99549.94;5024310;28;20052;-80
2022/01/01 05:30:12;;;;;;;29.17;6.63;;;;;;;13.44;83.42;99550.34;5024993;28;20045;-81
2022/01/01 05:32:39;;;;;;;37.08;7.68;;;;;;;13.43;83.53;99554.31;5023064;28;20041;-82
2022/01/01 05:35:06;;;;;;;36.90;6.68;;;;;;;13.40;83.63;99574.53;5026476;28;20035;-81
2022/01/01 05:37:33;;;;;;;32.00;7.50;;;;;;;13.41;83.59;99578.94;5022700;28;20045;-81
2022/01/01 05:40:00;;;;;;;33.97;9.30;;;;;;;13.43;83.77;99587.66;5010403;28;20478;-81
2022/01/01 05:42:30;;;;;;;38.22;7.90;;;;;;;13.40;84.12;99560.66;5026035;28;20037;-81
2022/01/01 05:44:56;;;;;;;34.58;8.68;;;;;;;13.37;84.53;99561.44;5010118;28;20037;-81
2022/01/01 05:47:23;;;;;;;36.38;8.32;;;;;;;13.37;84.60;99566.97;5025463;28;20124;-81
2022/01/01 05:49:50;;;;;;;32.40;6.90;;;;;;;13.39;84.42;99570.19;5021300;28;20466;-81
2022/01/01 05:52:17;;;;;;;30.58;7.65;;;;;;;13.41;84.41;99578.94;5026574;28;20120;-81
2022/01/01 05:54:44;;;;;;;29.90;7.20;;;;;;;13.41;84.40;99581.72;5010070;28;20050;-82
2022/01/01 05:57:10;;;;;;;35.78;7.13;;;;;;;13.43;84.31;99554.31;5024023;28;20108;-81
2022/01/01 05:59:40;;;;;;;32.38;7.70;;;;;;;13.43;84.20;99566.22;5007353;28;20132;-81
2022/01/01 06:02:08;;;;;;;39.10;7.43;;;;;;;13.45;83.98;99559.50;5023862;28;20118;-81
2022/01/01 06:04:35;;;;;;;27.00;8.30;;;;;;;13.46;83.58;99553.53;5024232;28;20033;-81
2022/01/01 06:07:03;;;;;;;38.55;8.80;;;;;;;13.45;83.18;99563.03;5025158;28;20042;-81
2022/01/01 06:09:30;;;;;;;32.08;7.03;;;;;;;13.46;83.23;99563.84;5027520;28;20041;-81
2022/01/01 06:11:57;;;;;;;39.55;8.77;;;;;;;13.44;83.07;99580.94;5013348;28;20117;-81
2022/01/01 06:14:24;;;;;;;30.98;7.88;;;;;;;13.47;82.65;99560.69;5030536;28;20122;-81
2022/01/01 06:16:51;;;;;;;30.80;6.45;;;;;;;13.51;82.19;99583.72;5027357;28;20049;-81
2022/01/01 06:19:18;;;;;;;29.88;7.20;;;;;;;13.56;82.15;99591.69;5009994;28;20045;-81
2022/01/01 06:21:44;;;;;;;36.45;8.52;;;;;;;13.57;81.88;99575.78;5029133;28;20073;-81
2022/01/01 06:24:11;;;;;;;32.45;8.50;;;;;;;13.61;81.69;99588.50;5026027;28;20052;-81
2022/01/01 06:26:38;;;;;;;36.53;7.35;;;;;;;13.64;81.79;99598.06;5027998;28;20044;-82
2022/01/01 06:29:05;;;;;;;38.40;7.70;;;;;;;13.62;81.88;99579.00;5029091;28;20082;-82
2022/01/01 06:31:31;;;;;;;40.67;8.65;;;;;;;13.62;81.90;99608.78;5027723;28;20037;-81
2022/01/01 06:33:58;;;;;;;40.42;8.63;;;;;;;13.64;81.87;99586.94;5027645;28;20041;-82
2022/01/01 06:36:27;;;;;;;47.15;8.65;;;;;;;13.64;81.74;99590.50;5027304;28;20042;-81
2022/01/01 06:38:54;;;;;;;36.67;9.48;;;;;;;13.67;81.44;99592.50;5030656;28;20112;-81
2022/01/01 06:41:24;;;;;;;42.83;9.68;;;;;;;13.66;81.48;99584.56;5027452;28;20046;-81
2022/01/01 06:43:52;;;;;;;29.70;7.43;;;;;;;13.64;81.74;99587.72;5027823;28;20060;-81
2022/01/01 06:46:19;;;;;;;35.45;8.15;;;;;;;13.62;81.96;99589.31;5024546;28;20060;-81
2022/01/01 06:48:46;;;;;;;34.63;8.38;;;;;;;13.58;82.31;99580.94;5028249;28;20083;-81
2022/01/01 06:51:13;;;;;;;28.60;5.95;;;;;;;13.52;82.93;99596.44;5025322;28;20092;-81
2022/01/01 06:53:40;;;;;;;26.58;6.25;;;;;;;13.50;83.09;99592.47;5025918;28;20049;-81
2022/01/01 06:56:07;;;;;;;31.83;7.38;;;;;;;13.44;83.28;99600.38;5026969;28;20140;-81
2022/01/01 06:58:36;;;;;;;29.27;6.30;;;;;;;13.44;83.23;99617.06;5026547;28;20120;-81
2022/01/01 07:01:03;;;;;;;29.17;5.75;;;;;;;13.46;83.00;99620.25;5025201;28;20030;-81
2022/01/01 07:03:32;;;;;;;26.33;6.25;;;;;;;13.44;82.72;99605.94;5028514;28;20049;-81
2022/01/01 07:05:59;;;;;;;26.58;7.10;;;;;;;13.42;82.67;99613.91;5026530;28;20122;-81
2022/01/01 07:08:27;;;;;;;27.58;6.38;;;;;;;13.41;82.51;99606.72;5011647;28;20034;-81
2022/01/01 07:10:54;;;;;;;34.03;6.15;;;;;;;13.40;82.23;99605.13;5026380;28;20041;-82
2022/01/01 07:13:21;;;;;;;34.22;7.03;;;;;;;13.37;82.23;99617.03;5026480;28;20033;-81
2022/01/01 07:15:47;;;;;;;30.73;6.30;;;;;;;13.33;81.65;99611.47;5028782;28;20044;-81
2022/01/01 07:18:15;;;;;;;22.70;5.55;;;;;;;13.28;81.11;99636.06;5025533;28;20507;-81
2022/01/01 07:20:42;;;;;;;19.60;5.22;;;;;;;13.27;79.90;99607.47;5027030;28;20047;-81
2022/01/01 07:23:10;;;;;;;27.35;6.35;;;;;;;13.22;79.22;99615.38;5027002;28;20037;-81
2022/01/01 07:25:37;;;;;;;18.63;4.20;;;;;;;13.16;78.92;99619.72;5026840;28;20504;-81
2022/01/01 07:28:04;;;;;;;17.00;4.30;;;;;;;13.13;78.84;99649.06;5025801;28;20069;-81
2022/01/01 07:30:30;;;;;;;34.65;5.85;;;;;;;13.10;78.54;99657.41;5024856;28;20068;-81
2022/01/01 07:32:57;;;;;;;16.27;4.38;;;;;;;13.04;78.51;99608.91;5027303;28;20129;-81
2022/01/01 07:35:24;;;;;;;22.73;5.68;;;;;;;13.00;78.26;99642.22;5028147;28;20038;-81
2022/01/01 07:37:52;;;;;;;24.05;5.82;;;;;;;12.97;78.10;99654.13;5010193;28;20436;-81
2022/01/01 07:40:20;;;;;;;23.10;5.22;;;;;;;12.96;77.94;99665.63;5023019;28;20420;-81
2022/01/01 07:42:48;;;;;;;25.92;5.38;;;;;;;12.93;77.99;99671.94;5027404;28;20083;-81
2022/01/01 07:45:15;;;;;;;29.00;4.80;;;;;;;12.85;78.09;99679.44;5011774;28;20061;-81
2022/01/01 07:47:44;;;;;;;25.95;4.60;;;;;;;12.78;78.07;99680.19;5025997;28;20049;-81
2022/01/01 07:50:11;;;;;;;32.83;8.05;;;;;;;12.76;78.37;99685.31;5024962;28;20043;-81
2022/01/01 07:52:38;;;;;;;23.50;5.25;;;;;;;12.71;78.10;99699.56;5010026;28;20037;-82
2022/01/01 07:55:06;;;;;;;17.55;4.65;;;;;;;12.66;78.38;99705.47;5028748;28;20144;-82
2022/01/01 07:57:33;;;;;;;23.77;5.35;;;;;;;12.64;78.24;99702.31;5026570;28;20037;-82
2022/01/01 08:00:00;;;;;;;30.13;5.28;;;;;;;12.62;78.11;99715.78;5024062;28;20104;-81
2022/01/01 08:02:27;;;;;;;26.95;7.38;;;;;;;12.59;78.34;99722.09;5026501;28;20037;-81
2022/01/01 08:04:54;;;;;;;26.75;8.75;;;;;;;12.56;78.03;99728.41;5023493;28;20103;-81
2022/01/01 08:07:21;;;;;;;25.73;5.97;;;;;;;12.52;77.98;99721.25;5009715;28;20128;-81
2022/01/01 08:10:08;;;;;;;22.85;5.97;;;;;;;12.49;78.32;99725.56;5021599;28;20051;-81
2022/01/01 08:12:35;;;;;;;32.13;6.82;;;;;;;12.45;78.20;99732.25;5027752;28;20116;-81
2022/01/01 08:15:04;;;;;;;32.15;6.07;;;;;;;12.40;78.00;99725.09;5026133;28;20120;-81
2022/01/01 08:17:31;;;;;;;29.98;6.20;;;;;;;12.38;78.21;99746.06;5009258;28;20037;-81
2022/01/01 08:19:58;;;;;;;27.65;5.97;;;;;;;12.33;78.15;99741.69;5025000;28;20519;-81
2022/01/01 08:22:27;;;;;;;23.63;6.63;;;;;;;12.31;77.90;99741.22;5025416;28;20476;-81
2022/01/01 08:24:54;;;;;;;28.05;7.57;;;;;;;12.27;77.93;99754.28;5025382;28;20127;-81
2022/01/01 08:27:21;;;;;;;29.73;5.63;;;;;;;12.25;77.82;99772.50;5028482;28;20152;-79
2022/01/01 08:29:48;;;;;;;29.83;6.55;;;;;;;12.21;78.01;99775.22;5024628;28;20080;-80
2022/01/01 08:32:15;;;;;;;32.53;6.63;;;;;;;12.17;77.69;99777.97;5000717;28;20068;-81
2022/01/01 08:34:42;;;;;;;30.38;6.38;;;;;;;12.14;77.76;99783.47;5023600;28;20123;-81
2022/01/01 08:37:09;;;;;;;26.40;7.43;;;;;;;12.13;77.76;99779.09;5026022;28;20485;-81
2022/01/01 08:39:37;;;;;;;29.65;6.80;;;;;;;12.12;77.74;99785.84;5025658;28;20123;-81
2022/01/01 08:42:05;;;;;;;25.25;5.68;;;;;;;12.10;77.72;99777.06;5010405;28;20076;-82
2022/01/01 08:44:32;;;;;;;29.10;7.28;;;;;;;12.07;77.42;99778.63;5026506;28;20034;-81
2022/01/01 08:46:59;;;;;;;24.13;6.03;;;;;;;12.06;77.59;99804.81;5026673;28;20064;-81
2022/01/01 08:49:26;;;;;;;30.83;6.72;;;;;;;12.04;77.69;99795.25;5026036;28;20037;-81
2022/01/01 08:51:55;;;;;;;29.08;5.85;;;;;;;12.02;77.32;99800.41;5024448;28;20045;-81
2022/01/01 08:54:22;;;;;;;25.02;5.20;;;;;;;12.00;77.46;99805.50;5027690;28;20120;-81
2022/01/01 08:56:50;;;;;;;38.75;8.38;;;;;;;11.99;76.92;99817.78;5039819;28;20049;-81
2022/01/01 08:59:17;;;;;;;22.17;4.30;;;;;;;11.99;76.75;99837.22;5027121;28;20061;-81
2022/01/01 09:01:44;;;;;;;31.90;6.22;;;;;;;11.98;76.76;99835.59;5025477;28;20373;-81
2022/01/01 09:04:12;;;;;;;29.88;6.65;;;;;;;11.96;76.84;99832.41;5023767;28;20073;-79
2022/01/01 09:06:38;;;;;;;27.67;6.50;;;;;;;11.91;76.51;99830.78;5025096;28;20069;-81
2022/01/01 09:09:06;;;;;;;33.88;6.82;;;;;;;11.89;76.85;99843.38;5025143;28;20045;-81
2022/01/01 09:11:32;;;;;;;33.58;6.03;;;;;;;11.85;76.75;99843.34;5022503;28;20037;-81
2022/01/01 09:13:59;;;;;;;29.63;4.82;;;;;;;11.84;76.94;99844.53;5024241;28;20041;-82
2022/01/01 09:16:29;;;;;;;27.55;6.18;;;;;;;11.83;76.93;99858.78;5008379;28;20128;-83
2022/01/01 09:18:57;;;;;;;24.70;5.30;;;;;;;11.81;76.72;99863.91;5023392;28;20040;-80
2022/01/01 09:21:25;;;;;;;29.20;5.80;;;;;;;11.81;76.94;99872.22;5018898;28;20160;-81
2022/01/01 09:23:53;;;;;;;42.08;8.90;;;;;;;11.77;76.67;99869.38;5025917;28;20490;-80
2022/01/01 09:26:21;;;;;;;24.92;4.90;;;;;;;11.78;76.93;99884.06;5024299;28;20037;-81
2022/01/01 09:28:47;;;;;;;28.40;8.23;;;;;;;11.78;76.81;99875.75;5025071;28;20038;-81
2022/01/01 09:31:15;;;;;;;32.22;6.22;;;;;;;11.80;76.80;99878.94;5024651;28;20042;-81
2022/01/01 09:33:43;;;;;;;26.63;6.55;;;;;;;11.80;76.63;99876.16;5024747;28;20057;-81
2022/01/01 09:36:10;;;;;;;31.67;7.60;;;;;;;11.84;76.39;99896.41;5005182;28;20042;-80
2022/01/01 09:38:36;;;;;;;28.00;5.88;;;;;;;11.84;76.41;99894.44;5024261;28;20466;-80
2022/01/01 09:41:04;;;;;;;25.50;5.82;;;;;;;11.87;76.16;99898.44;5007766;28;20038;-81
2022/01/01 09:43:32;;;;;;;29.67;6.93;;;;;;;11.90;76.56;99906.00;5023240;28;20116;-81
2022/01/01 09:46:00;;;;;;;29.15;5.57;;;;;;;11.91;76.49;99896.53;5007217;28;20089;-81
2022/01/01 09:48:28;;;;;;;32.10;8.57;;;;;;;11.91;76.42;99902.88;5022804;28;20049;-80
2022/01/01 09:50:58;;;;;;;40.75;9.30;;;;;;;11.92;76.64;99898.91;5024854;28;20037;-80
2022/01/01 09:53:27;;;;;;;33.97;5.63;;;;;;;11.92;76.70;99881.47;5007416;28;20136;-81
2022/01/01 09:55:56;;;;;;;25.80;5.63;;;;;;;11.92;76.89;99890.59;5022741;28;20041;-81
2022/01/01 09:58:24;;;;;;;27.13;6.72;;;;;;;11.93;77.26;99888.63;5023550;28;20033;-81
2022/01/01 10:00:52;;;;;;;35.45;7.75;;;;;;;11.93;77.29;99894.19;5020881;28;20069;-82
2022/01/01 10:03:34;;;;;;;33.40;6.40;;;;;;;11.93;77.09;99889.44;5023331;28;20492;-81
2022/01/01 10:06:12;;;;;;;28.33;5.10;;;;;;;11.96;77.07;99898.97;5019537;28;20052;-81
2022/01/01 10:08:56;;;;;;;29.90;6.47;;;;;;;11.97;77.16;99900.56;5005401;28;20067;-81
2022/01/01 10:11:24;;;;;;;39.08;6.35;;;;;;;12.00;77.26;99908.13;5022330;28;20145;-81
2022/01/01 10:13:51;;;;;;;47.75;9.27;;;;;;;11.99;77.44;99912.88;5026904;28;20121;-81
2022/01/01 10:16:18;;;;;;;34.55;6.93;;;;;;;12.02;77.36;99908.59;5022612;28;20125;-82
2022/01/01 10:18:47;;;;;;;29.83;6.57;;;;;;;12.01;77.42;99912.53;5006795;28;20154;-81
2022/01/01 10:21:17;;;;;;;41.13;7.22;;;;;;;12.03;77.33;99910.16;5020662;28;20121;-81
2022/01/01 10:23:46;;;;;;;41.22;8.98;;;;;;;12.06;77.36;99898.31;5020090;28;22086;-81
2022/01/01 10:29:14;;;;;;;35.95;6.63;;;;;;;12.08;77.19;99912.63;5022506;28;20130;-82
2022/01/01 10:32:06;;;;;;;27.63;7.07;;;;;;;12.09;77.29;99934.44;5021115;28;20042;-81
2022/01/01 10:34:43;;;;;;;38.30;9.07;;;;;;;12.11;77.29;99928.50;5023601;28;20069;-81
2022/01/01 10:37:30;;;;;;;35.30;7.75;;;;;;;12.12;77.28;99930.94;5024201;28;20462;-81
2022/01/01 10:39:58;;;;;;;29.38;5.57;;;;;;;12.15;77.29;99944.03;5022980;28;20064;-81
2022/01/01 10:42:25;;;;;;;24.33;6.40;;;;;;;12.17;77.42;99940.91;5024417;28;20044;-81
2022/01/01 10:44:54;;;;;;;30.60;5.95;;;;;;;12.19;77.31;99955.19;5025829;28;20426;-81
2022/01/01 10:47:30;;;;;;;37.55;7.25;;;;;;;12.17;77.40;99954.78;5025503;28;20144;-81
2022/01/01 10:52:32;;;;;;;38.20;7.20;;;;;;;12.20;77.65;99956.81;5025173;28;20037;-83
2022/01/01 10:55:01;;;;;;;36.47;9.15;;;;;;;12.22;77.31;99957.22;5025063;28;20128;-81
2022/01/01 10:57:36;;;;;;;31.55;6.53;;;;;;;12.23;77.46;99958.81;5028079;28;20311;-82
2022/01/01 11:00:13;;;;;;;29.42;6.88;;;;;;;12.22;77.30;99962.78;5026638;28;20473;-81
2022/01/01 11:02:48;;;;;;;37.53;6.95;;;;;;;12.25;77.28;99970.34;5026989;28;20095;-82
2022/01/01 11:05:24;;;;;;;28.35;7.70;;;;;;;12.26;77.37;99952.50;5010863;28;20077;-83
2022/01/01 11:07:52;;;;;;;42.75;8.20;;;;;;;12.28;77.14;99958.50;5005306;28;20159;-83
2022/01/01 11:10:23;;;;;;;39.40;8.07;;;;;;;12.30;77.04;99953.38;5030182;28;20496;-83
2022/01/01 11:12:51;;;;;;;33.80;7.07;;;;;;;12.31;76.85;99949.41;5027435;28;20065;-83
2022/01/01 11:15:18;;;;;;;34.78;7.07;;;;;;;12.32;76.82;99956.56;5029592;28;20041;-82
2022/01/01 11:17:48;;;;;;;27.80;5.97;;;;;;;12.32;76.43;99945.47;5023860;28;20037;-83
2022/01/01 11:20:16;;;;;;;26.42;6.57;;;;;;;12.34;76.33;99948.66;5023291;28;20069;-82
2022/01/01 11:22:46;;;;;;;30.15;6.85;;;;;;;12.35;76.65;99963.34;5011041;28;20132;-83
2022/01/01 11:25:13;;;;;;;21.65;6.38;;;;;;;12.35;76.29;99949.44;5025559;28;20753;-82
2022/01/01 11:27:44;;;;;;;37.78;8.45;;;;;;;12.36;76.35;99946.31;5025523;28;20073;-82
2022/01/01 11:30:13;;;;;;;32.40;6.32;;;;;;;12.37;76.38;99947.09;5009841;28;20045;-82
2022/01/01 11:32:57;;;;;;;33.65;6.97;;;;;;;12.36;75.86;99931.63;5022576;28;20049;-82
2022/01/01 11:35:31;;;;;;;30.23;5.38;;;;;;;12.37;76.10;99947.09;5035942;28;20450;-82
2022/01/01 11:38:17;;;;;;;33.42;6.65;;;;;;;12.37;76.26;99947.91;5022676;28;20045;-82
2022/01/01 11:41:00;;;;;;;37.13;7.72;;;;;;;12.39;76.26;99940.00;5022628;28;20049;-81